메인 페이지
METAR-TAF:

METAR-TAF

공항 :

필라델피아 국제공항

필라델피아, 펜실베이니아, 미국

위도: 39-52-06N, 경도: 075-13-52W, 고도: 6m

현재 날씨관측

예보는 29분 전, 18:54시(UTC)에 발표되었습니다.
동남동4kt
온도 12°C
습도 67%
기압 1017 hPa
시정: 16.1km
고도 1200ft 상공 구름 조금
고도 2700ft 상공 흐림

METAR: KPHL 041854Z 11004KT 10SM FEW012 OVC027 12/06 A3002 RMK AO2 SLP167 T01220061

시각: 15:23 (19:23 UTC)

예보

예보는 2 시간 2분 전, 17:21시(UTC)에 발표되었습니다.
예보 대상 시간: 04일 18시부터 05일 24시까지 (UTC)
9kt
시정: 10km
고도 2000ft 상공 구름 보통
고도 3500ft 상공 구름 많음
일시적
04일 18시부터 04일 20시까지 (UTC)
고도 3000ft 상공 구름 많음
04일 2000시부터 (UTC)
여러 방향의 바람 5kt
시정: 10km
고도 2500ft 상공 구름 보통
고도 4000ft 상공 구름 많음
05일 0300시부터 (UTC)
남남서5kt
시정: 10km
고도 2500ft 상공 구름 보통
고도 3500ft 상공 구름 많음
05일 1400시부터 (UTC)
서남서6kt
시정: 10km
고도 4500ft 상공 구름 많음

TAF: KPHL 041721Z 0418/0524 09009KT P6SM SCT020 BKN035 TEMPO 0418/0420 BKN030 FM042000 VRB05KT P6SM SCT025 BKN040 FM050300 21005KT P6SM SCT025 BKN035 FM051400 25006KT P6SM BKN045

4,000개 이상의 공항 관측 자료 및 예보 (METAR 및 TAF 보고).

지도상에서 검색 가능한 기상관측소가 노란 점과 빨간 점으로 표시되어 있습니다.

기상관측소 명을 보려면 표시 위로 마우스를 이동하세요.

날씨 관측과 예보를 보려면 클릭하세요.

지도 변경 : 확대하려면 엑스 표시가 있는 녹색 버튼, 축소하려면 빼기 표시가 있는 녹색 버튼, 다음 페이지의 지도를 보려면 녹색 화살표를 클릭하세요.


METAR-TAF: